createdAt,value
2022-09-12T00:02:36.603Z,100
2022-09-12T00:07:36.599Z,100
2022-09-12T00:12:36.589Z,100
2022-09-12T00:17:36.580Z,100
2022-09-12T00:22:36.565Z,100
2022-09-12T00:27:36.572Z,100
2022-09-12T00:32:36.549Z,100
2022-09-12T00:37:36.558Z,100
2022-09-12T00:42:36.538Z,100
2022-09-12T00:47:36.538Z,100
2022-09-12T00:52:36.549Z,100
2022-09-12T00:57:36.531Z,100
2022-09-12T01:02:36.532Z,100
2022-09-12T01:07:39.845Z,100
2022-09-12T01:12:36.531Z,100
2022-09-12T01:17:36.514Z,100
2022-09-12T01:22:36.520Z,100
2022-09-12T01:27:36.505Z,100
2022-09-12T01:32:36.519Z,100
2022-09-12T01:37:36.498Z,100
2022-09-12T01:42:36.492Z,100
2022-09-12T01:47:36.496Z,100
2022-09-12T01:52:36.488Z,100
2022-09-12T01:57:36.486Z,100
2022-09-12T02:02:36.472Z,100
2022-09-12T02:07:36.479Z,100
2022-09-12T02:12:36.473Z,100
2022-09-12T02:17:36.471Z,100
2022-09-12T02:22:36.459Z,100
2022-09-12T02:27:36.459Z,100
2022-09-12T02:32:36.450Z,100
2022-09-12T02:37:36.447Z,100
2022-09-12T02:42:36.439Z,100
2022-09-12T02:47:36.434Z,100
2022-09-12T02:52:36.431Z,100
2022-09-12T02:57:36.423Z,100
2022-09-12T03:02:36.426Z,100
2022-09-12T03:07:36.408Z,100
2022-09-12T03:17:36.421Z,100
2022-09-12T03:22:36.398Z,100
2022-09-12T03:32:36.422Z,100
2022-09-12T03:47:36.377Z,100
2022-09-12T03:57:36.372Z,100
2022-09-12T04:17:36.364Z,100
2022-09-12T04:27:36.350Z,100
2022-09-12T04:32:36.357Z,100
2022-09-12T04:37:36.344Z,100
2022-09-12T04:42:36.340Z,100
2022-09-12T04:47:36.321Z,100
2022-09-12T04:52:36.314Z,100
2022-09-12T04:57:36.325Z,100
2022-09-12T05:02:36.347Z,100
2022-09-12T05:07:36.307Z,100
2022-09-12T05:12:36.302Z,100
2022-09-12T05:17:36.306Z,100
2022-09-12T05:22:36.292Z,100
2022-09-12T05:27:36.280Z,100
2022-09-12T05:32:36.288Z,100
2022-09-12T05:37:36.295Z,100
2022-09-12T05:42:36.287Z,100
2022-09-12T05:47:36.261Z,100
2022-09-12T05:52:36.277Z,100
2022-09-12T05:57:36.266Z,100
2022-09-12T06:02:36.288Z,100
2022-09-12T06:07:36.250Z,100
2022-09-12T06:12:36.240Z,100
2022-09-12T06:17:36.241Z,100
2022-09-12T06:22:36.231Z,100
2022-09-12T06:27:36.236Z,100
2022-09-12T06:32:36.216Z,98.1
2022-09-12T06:37:36.215Z,94.6
2022-09-12T06:42:36.208Z,93.2
2022-09-12T06:47:36.203Z,92.5
2022-09-12T06:52:36.203Z,91.1
2022-09-12T07:02:36.230Z,88.9
2022-09-12T07:12:36.187Z,87.8
2022-09-12T07:22:36.160Z,87.3
2022-09-12T07:27:36.152Z,85.8
2022-09-12T07:37:36.137Z,84.3
2022-09-12T07:42:36.149Z,85.4
2022-09-12T07:47:36.129Z,83.9
2022-09-12T07:52:36.122Z,83.6
2022-09-12T07:57:36.120Z,82.1
2022-09-12T08:02:36.153Z,82.4
2022-09-12T08:22:36.087Z,79.8
2022-09-12T08:27:36.093Z,79.4
2022-09-12T08:32:36.091Z,78.5
2022-09-12T08:37:36.068Z,76.4
2022-09-12T08:42:36.049Z,76.2
2022-09-12T08:47:36.059Z,75.7
2022-09-12T08:52:36.057Z,75.7
2022-09-12T08:57:36.049Z,74
2022-09-12T09:02:36.059Z,76
2022-09-12T09:07:36.025Z,76.2
2022-09-12T09:12:36.038Z,75.4
2022-09-12T09:17:36.024Z,74.5
2022-09-12T09:22:36.287Z,72.9
2022-09-12T09:27:40.735Z,71.4
2022-09-12T09:32:36.009Z,70.8
2022-09-12T09:37:36.006Z,69.5
2022-09-12T09:42:35.994Z,69.3
2022-09-12T09:47:35.975Z,68.4
2022-09-12T09:52:35.997Z,68.9
2022-09-12T09:57:35.986Z,67.9
2022-09-12T10:02:36.023Z,71.9
2022-09-12T10:07:35.964Z,71.7
2022-09-12T10:12:35.955Z,68
2022-09-12T10:17:35.955Z,67.7
2022-09-12T10:22:35.948Z,67.4
2022-09-12T10:27:35.944Z,67
2022-09-12T10:32:35.966Z,66.6
2022-09-12T10:37:35.930Z,65.6
2022-09-12T10:42:35.911Z,65.5
2022-09-12T10:47:35.902Z,65.9
2022-09-12T10:52:35.893Z,63.6
2022-09-12T10:57:35.888Z,67.6
2022-09-12T11:02:35.931Z,63.6
2022-09-12T11:07:35.888Z,63
2022-09-12T11:12:35.965Z,60.5
2022-09-12T11:17:35.899Z,63.1
2022-09-12T11:22:35.886Z,62.9
2022-09-12T11:27:35.864Z,61.2
2022-09-12T11:32:35.850Z,61.5
2022-09-12T11:37:35.845Z,60.4
2022-09-12T11:52:35.832Z,58
2022-09-12T11:57:35.823Z,59.3
2022-09-12T12:02:35.851Z,59.1
2022-09-12T12:07:35.801Z,63.2
2022-09-12T12:12:35.800Z,59
2022-09-12T12:17:35.776Z,57.8
2022-09-12T12:27:35.776Z,64.5
2022-09-12T12:32:35.774Z,60.2
2022-09-12T12:37:35.779Z,58.9
2022-09-12T12:42:35.782Z,58.2
2022-09-12T12:47:35.769Z,57.4
2022-09-12T12:52:35.755Z,56.2
2022-09-12T12:57:35.739Z,55.1
2022-09-12T13:02:35.887Z,54.7
2022-09-12T13:07:35.740Z,54.4
2022-09-12T13:12:35.753Z,54.8
2022-09-12T13:17:35.721Z,53.4
2022-09-12T13:22:35.719Z,52.6
2022-09-12T13:32:35.701Z,53.9
2022-09-12T13:37:35.696Z,53.1
2022-09-12T13:42:35.696Z,53.1
2022-09-12T13:52:35.682Z,53.6
2022-09-12T13:57:35.649Z,51.2
2022-09-12T14:02:35.740Z,52.9
2022-09-12T14:12:35.652Z,52.8
2022-09-12T14:17:35.628Z,52.9
2022-09-12T14:22:35.622Z,52
2022-09-12T14:32:35.625Z,52.4
2022-09-12T14:37:35.617Z,51.5
2022-09-12T14:42:35.605Z,49.9
2022-09-12T14:47:35.619Z,51.8
2022-09-12T14:52:35.587Z,51.6
2022-09-12T14:57:35.572Z,51.3
2022-09-12T15:02:35.576Z,54.1
2022-09-12T15:07:35.590Z,51.9
2022-09-12T15:12:35.561Z,56.4
2022-09-12T15:17:35.545Z,51.7
2022-09-12T15:22:35.613Z,51.5
2022-09-12T15:27:35.535Z,51
2022-09-12T15:32:35.529Z,52.2
2022-09-12T15:37:35.537Z,53.3
2022-09-12T15:42:35.526Z,51.4
2022-09-12T15:47:35.529Z,55.5
2022-09-12T15:52:35.511Z,54.4
2022-09-12T15:57:35.494Z,57.6
2022-09-12T16:02:35.537Z,58.7
2022-09-12T16:07:35.519Z,56.2
2022-09-12T16:12:35.483Z,59.9
2022-09-12T16:17:35.495Z,54.6
2022-09-12T16:22:35.462Z,54.6
2022-09-12T16:27:35.458Z,54.4
2022-09-12T16:32:35.463Z,56.1
2022-09-12T16:37:35.452Z,57.8
2022-09-12T16:42:35.431Z,59.5
2022-09-12T16:47:35.422Z,59.4
2022-09-12T16:52:35.443Z,60.4
2022-09-12T16:57:35.419Z,63.8
2022-09-12T17:02:35.456Z,64
2022-09-12T17:07:35.427Z,65.1
2022-09-12T17:12:35.401Z,66.1
2022-09-12T17:17:35.396Z,69.3
2022-09-12T17:22:35.410Z,68.8
2022-09-12T17:27:35.400Z,71.8
2022-09-12T17:32:35.385Z,72.8
2022-09-12T17:37:35.378Z,74.3
2022-09-12T17:42:35.366Z,74.3
2022-09-12T17:47:35.352Z,74.8
2022-09-12T17:52:35.353Z,75.6
